createdAt,value
2019-02-18T00:00:11.539Z,37.9
2019-02-18T00:01:01.556Z,37.9
2019-02-18T00:01:51.163Z,37.9
2019-02-18T00:02:41.151Z,37.9
2019-02-18T00:03:32.106Z,37.9
2019-02-18T00:04:21.015Z,37.9
2019-02-18T00:05:11.376Z,37.8
2019-02-18T00:06:01.985Z,37.8
2019-02-18T00:06:52.281Z,37.8
2019-02-18T00:07:42.061Z,37.8
2019-02-18T00:08:32.115Z,37.8
2019-02-18T00:09:22.172Z,37.8
2019-02-18T00:10:12.051Z,37.8
2019-02-18T00:11:01.798Z,37.8
2019-02-18T00:11:51.843Z,37.8
2019-02-18T00:12:42.458Z,37.8
2019-02-18T00:13:32.458Z,37.8
2019-02-18T00:14:21.939Z,37.8
2019-02-18T00:15:12.655Z,37.8
2019-02-18T00:16:02.102Z,37.8
2019-02-18T00:16:52.264Z,37.8
2019-02-18T00:17:42.460Z,37.8
2019-02-18T00:18:33.125Z,37.8
2019-02-18T00:19:22.870Z,37.8
2019-02-18T00:20:12.111Z,37.8
2019-02-18T00:21:03.313Z,37.8
2019-02-18T00:21:52.757Z,37.7
2019-02-18T00:22:43.623Z,37.7
2019-02-18T00:23:33.174Z,37.7
2019-02-18T00:24:23.764Z,37.7
2019-02-18T00:25:13.030Z,37.7
2019-02-18T00:26:03.069Z,37.7
2019-02-18T00:26:53.109Z,37.7
2019-02-18T00:27:43.504Z,37.7
2019-02-18T00:28:33.499Z,37.7
2019-02-18T00:29:23.299Z,37.7
2019-02-18T00:30:13.089Z,37.7
2019-02-18T00:31:02.842Z,37.6
2019-02-18T00:31:53.987Z,37.6
2019-02-18T00:32:44.083Z,37.6
2019-02-18T00:33:33.849Z,37.6
2019-02-18T00:34:24.150Z,37.6
2019-02-18T00:35:14.051Z,37.6
2019-02-18T00:36:04.649Z,37.6
2019-02-18T00:36:53.841Z,37.6
2019-02-18T00:37:43.875Z,37.6
2019-02-18T00:38:34.195Z,37.6
2019-02-18T00:39:24.264Z,37.6
2019-02-18T00:40:14.581Z,37.6
2019-02-18T00:41:04.116Z,37.6
2019-02-18T00:41:55.148Z,37.6
2019-02-18T00:42:44.484Z,37.6
2019-02-18T00:43:34.831Z,37.6
2019-02-18T00:44:24.681Z,37.6
2019-02-18T00:45:14.731Z,37.6
2019-02-18T00:46:04.475Z,37.6
2019-02-18T00:46:54.015Z,37.6
2019-02-18T00:47:44.834Z,37.6
2019-02-18T00:48:34.338Z,37.6
2019-02-18T00:49:24.132Z,37.6
2019-02-18T00:50:14.448Z,37.5
2019-02-18T00:51:04.207Z,37.5
2019-02-18T00:51:54.585Z,37.5
2019-02-18T00:52:44.878Z,37.5
2019-02-18T00:53:35.563Z,37.5
2019-02-18T00:54:25.565Z,37.5
2019-02-18T00:55:15.370Z,37.5
2019-02-18T00:56:04.635Z,37.5
2019-02-18T00:56:55.162Z,37.4
2019-02-18T00:57:45.319Z,37.4
2019-02-18T00:58:35.600Z,37.4
2019-02-18T00:59:25.438Z,37.4
2019-02-18T01:00:15.553Z,37.4
2019-02-18T01:01:05.485Z,37.4
2019-02-18T01:01:55.840Z,37.4
2019-02-18T01:02:45.315Z,37.4
2019-02-18T01:03:35.637Z,37.4
2019-02-18T01:04:26.279Z,37.4
2019-02-18T01:05:15.875Z,37.4
2019-02-18T01:06:05.308Z,37.4
2019-02-18T01:06:56.194Z,37.4
2019-02-18T01:07:45.967Z,37.4
2019-02-18T01:08:36.053Z,37.4
2019-02-18T01:09:26.650Z,37.4
2019-02-18T01:10:16.434Z,37.4
2019-02-18T01:11:05.711Z,37.4
2019-02-18T01:11:56.499Z,37.4
2019-02-18T01:12:46.569Z,37.4
2019-02-18T01:13:36.599Z,37.4
2019-02-18T01:14:26.951Z,37.4
2019-02-18T01:15:16.506Z,37.4
2019-02-18T01:16:06.852Z,37.3
2019-02-18T01:16:56.049Z,37.3
2019-02-18T01:17:46.639Z,37.3
2019-02-18T01:18:36.969Z,37.3
2019-02-18T01:19:27.305Z,37.3
2019-02-18T01:20:17.234Z,37.3
2019-02-18T01:21:07.131Z,37.3
2019-02-18T01:21:56.894Z,37.3
2019-02-18T01:22:47.984Z,37.3
2019-02-18T01:23:37.642Z,37.3
2019-02-18T01:24:26.573Z,37.3
2019-02-18T01:25:16.709Z,37.3
2019-02-18T01:26:07.746Z,37.3
2019-02-18T01:26:57.528Z,37.3
2019-02-18T01:27:47.421Z,37.3
2019-02-18T01:28:37.430Z,37.3
2019-02-18T01:29:27.713Z,37.3
2019-02-18T01:30:17.305Z,37.3
2019-02-18T01:31:07.388Z,37.3
2019-02-18T01:31:57.663Z,37.3
2019-02-18T01:32:48.513Z,37.2
2019-02-18T01:33:37.408Z,37.2
2019-02-18T01:34:28.345Z,37.2
2019-02-18T01:35:17.545Z,37.2
2019-02-18T01:36:07.652Z,37.2
2019-02-18T01:36:58.215Z,37.2
2019-02-18T01:37:52.083Z,37.1
2019-02-18T01:38:38.429Z,37.2
2019-02-18T01:39:28.402Z,37.2
2019-02-18T01:40:18.598Z,37.2
2019-02-18T01:41:09.112Z,37.1
2019-02-18T01:41:58.280Z,37.1
2019-02-18T01:42:48.913Z,37.1
2019-02-18T01:43:38.140Z,37.1
2019-02-18T01:44:28.810Z,37.1
2019-02-18T01:45:17.965Z,37.1
2019-02-18T01:46:09.165Z,37.1
2019-02-18T01:46:58.972Z,37.1
2019-02-18T01:47:48.705Z,37.1
2019-02-18T01:48:39.067Z,37.1
2019-02-18T01:49:28.294Z,37.1
2019-02-18T01:50:19.632Z,37.1
2019-02-18T01:51:09.212Z,37.1
2019-02-18T01:51:58.719Z,37.1
2019-02-18T01:52:49.091Z,37.1
2019-02-18T01:53:39.374Z,37.1
2019-02-18T01:54:28.609Z,37.1
2019-02-18T01:55:19.301Z,37.1
2019-02-18T01:56:09.822Z,37.1
2019-02-18T01:56:59.345Z,37.1
2019-02-18T01:57:49.936Z,37.1
2019-02-18T01:58:38.983Z,37.1
2019-02-18T01:59:29.479Z,37.1
2019-02-18T02:00:18.867Z,37
2019-02-18T02:01:09.420Z,37.1
2019-02-18T02:01:58.914Z,37.1
2019-02-18T02:02:49.657Z,37
2019-02-18T02:03:40.676Z,37
2019-02-18T02:04:29.661Z,37
2019-02-18T02:05:20.115Z,37
2019-02-18T02:06:09.702Z,37
2019-02-18T02:07:00.371Z,37
2019-02-18T02:08:01.130Z,37
2019-02-18T02:08:39.682Z,37
2019-02-18T02:09:29.418Z,36.9
2019-02-18T02:10:19.823Z,37
2019-02-18T02:11:09.556Z,36.9
2019-02-18T02:11:59.942Z,36.9
2019-02-18T02:12:51.286Z,36.9
2019-02-18T02:13:41.063Z,36.9
2019-02-18T02:14:30.343Z,36.9
2019-02-18T02:15:20.950Z,36.9
2019-02-18T02:16:10.915Z,36.9
2019-02-18T02:17:00.770Z,36.9
2019-02-18T02:17:50.775Z,36.9
2019-02-18T02:18:41.167Z,36.9
2019-02-18T02:19:31.177Z,36.9
2019-02-18T02:20:20.980Z,36.9
2019-02-18T02:21:10.825Z,36.9
2019-02-18T02:22:01.062Z,36.9
2019-02-18T02:22:51.392Z,36.9
2019-02-18T02:23:41.452Z,36.9
2019-02-18T02:24:31.242Z,36.9
2019-02-18T02:25:21.322Z,36.9
2019-02-18T02:26:11.936Z,36.9
2019-02-18T02:27:01.697Z,36.9
2019-02-18T02:27:51.750Z,36.8
2019-02-18T02:28:41.804Z,36.8
2019-02-18T02:29:31.656Z,36.8
2019-02-18T02:30:22.383Z,36.8
2019-02-18T02:31:12.142Z,36.8
2019-02-18T02:32:02.231Z,36.8
2019-02-18T02:32:52.125Z,36.8
2019-02-18T02:33:42.190Z,36.8
2019-02-18T02:34:32.039Z,36.8
2019-02-18T02:35:22.162Z,36.8
2019-02-18T02:36:12.638Z,36.8
2019-02-18T02:37:02.147Z,36.8
2019-02-18T02:37:52.545Z,36.8
2019-02-18T02:38:41.736Z,36.8
2019-02-18T02:39:33.253Z,36.8
2019-02-18T02:40:22.394Z,36.8
2019-02-18T02:41:12.708Z,36.8
2019-02-18T02:42:02.213Z,36.8
2019-02-18T02:42:52.918Z,36.8
2019-02-18T02:43:43.139Z,36.8
2019-02-18T02:44:33.291Z,36.8
2019-02-18T02:45:23.379Z,36.8
2019-02-18T02:46:13.391Z,36.8
2019-02-18T02:47:02.931Z,36.7
2019-02-18T02:47:52.851Z,36.8
2019-02-18T02:48:43.473Z,36.7
2019-02-18T02:49:33.438Z,36.7
2019-02-18T02:50:23.914Z,36.7
2019-02-18T02:51:14.096Z,36.7
2019-02-18T02:52:03.466Z,36.7
2019-02-18T02:52:53.038Z,36.7
2019-02-18T02:53:43.917Z,36.7
2019-02-18T02:54:32.923Z,36.7
2019-02-18T02:55:23.425Z,36.7
2019-02-18T02:56:13.586Z,36.6
2019-02-18T02:57:02.997Z,36.7
2019-02-18T02:57:53.073Z,36.7
2019-02-18T02:58:43.395Z,36.6
2019-02-18T02:59:33.235Z,36.6
2019-02-18T03:00:23.680Z,36.6
2019-02-18T03:01:14.696Z,36.6
2019-02-18T03:02:03.165Z,36.6
2019-02-18T03:02:53.747Z,36.6
2019-02-18T03:03:43.548Z,36.6
2019-02-18T03:04:33.359Z,36.6
2019-02-18T03:08:06.327Z,36.6
2019-02-18T03:08:56.210Z,36.6
2019-02-18T03:09:46.417Z,36.6
2019-02-18T03:10:36.191Z,36.6
2019-02-18T03:11:26.534Z,36.6
2019-02-18T03:12:16.055Z,36.6
2019-02-18T03:13:06.386Z,36.6
2019-02-18T03:13:56.681Z,36.6
2019-02-18T03:14:46.236Z,36.6
2019-02-18T03:15:36.867Z,36.5
2019-02-18T03:16:26.305Z,36.6
2019-02-18T03:17:16.153Z,36.5
2019-02-18T03:18:07.279Z,36.5
2019-02-18T03:18:56.806Z,36.5
2019-02-18T03:19:47.294Z,36.5
2019-02-18T03:20:37.360Z,36.5
2019-02-18T03:21:26.954Z,36.5
2019-02-18T03:22:16.899Z,36.5
2019-02-18T03:23:07.355Z,36.5
2019-02-18T03:23:57.764Z,36.4
2019-02-18T03:24:47.489Z,36.5
2019-02-18T03:25:37.937Z,36.5
2019-02-18T03:26:27.793Z,36.4
2019-02-18T03:27:17.673Z,36.4
2019-02-18T03:28:07.353Z,36.4
2019-02-18T03:28:58.195Z,36.4
2019-02-18T03:29:48.616Z,36.4
2019-02-18T03:30:37.991Z,36.4
2019-02-18T03:31:28.340Z,36.4
2019-02-18T03:32:18.397Z,36.4
2019-02-18T03:33:08.982Z,36.4
2019-02-18T03:33:58.702Z,36.4
2019-02-18T03:34:47.882Z,36.4
2019-02-18T03:35:38.998Z,36.4
2019-02-18T03:36:28.742Z,36.4
2019-02-18T03:37:18.578Z,36.4
2019-02-18T03:38:08.974Z,36.4
2019-02-18T03:38:58.956Z,36.4
2019-02-18T03:39:49.046Z,36.4
2019-02-18T03:40:39.304Z,36.4
2019-02-18T03:41:29.338Z,36.4
2019-02-18T03:42:19.177Z,36.4
2019-02-18T03:43:09.162Z,36.3
2019-02-18T03:43:59.273Z,36.4
2019-02-18T03:44:49.322Z,36.4
2019-02-18T03:45:38.847Z,36.3
2019-02-18T03:46:29.814Z,36.3
2019-02-18T03:47:18.460Z,36.3
2019-02-18T03:48:09.650Z,36.3
2019-02-18T03:48:59.624Z,36.3
2019-02-18T03:49:49.770Z,36.3
2019-02-18T03:50:39.664Z,36.3
2019-02-18T03:51:29.799Z,36.3
2019-02-18T03:52:20.104Z,36.3
2019-02-18T03:53:09.934Z,36.3
2019-02-18T03:54:00.201Z,36.3
2019-02-18T03:54:50.044Z,36.3
2019-02-18T03:55:39.845Z,36.3
2019-02-18T03:56:29.891Z,36.3
2019-02-18T03:57:19.659Z,36.3
2019-02-18T03:58:09.968Z,36.3
2019-02-18T03:58:59.834Z,36.3
2019-02-18T03:59:49.869Z,36.3
2019-02-18T04:00:39.877Z,36.3
2019-02-18T04:01:30.503Z,36.2
2019-02-18T04:02:20.540Z,36.3
2019-02-18T04:03:10.047Z,36.2
2019-02-18T04:04:00.437Z,36.2
2019-02-18T04:04:50.696Z,36.2
2019-02-18T04:05:40.749Z,36.2
2019-02-18T04:06:29.844Z,36.2
2019-02-18T04:07:20.897Z,36.2
2019-02-18T04:08:10.921Z,36.2
2019-02-18T04:09:01.299Z,36.2
2019-02-18T04:09:50.767Z,36.2
2019-02-18T04:10:41.173Z,36.2
2019-02-18T04:11:31.561Z,36.1
2019-02-18T04:12:20.946Z,36.1
2019-02-18T04:13:11.890Z,36.1
2019-02-18T04:14:01.728Z,36.1
2019-02-18T04:14:51.685Z,36.1
2019-02-18T04:15:41.171Z,36.1
2019-02-18T04:16:31.479Z,36.1
2019-02-18T04:17:20.753Z,36.1
2019-02-18T04:18:11.670Z,36.1
2019-02-18T04:19:01.721Z,36.1
2019-02-18T04:19:53.057Z,36.1
2019-02-18T04:20:41.861Z,36.1
2019-02-18T04:21:31.142Z,36.1
2019-02-18T04:22:21.325Z,36.1
2019-02-18T04:23:11.692Z,36.1
2019-02-18T04:24:01.458Z,36.1
2019-02-18T04:24:52.112Z,36.1
2019-02-18T04:25:42.072Z,36.1
2019-02-18T04:26:32.321Z,36.1
2019-02-18T04:27:21.976Z,36.1
2019-02-18T04:28:12.009Z,36.1
2019-02-18T04:29:02.105Z,36.1
2019-02-18T04:29:52.113Z,36.1
2019-02-18T04:30:42.534Z,36.1
2019-02-18T04:31:32.982Z,36.1
2019-02-18T04:32:22.877Z,36
2019-02-18T04:33:12.997Z,36
2019-02-18T04:34:03.006Z,36
2019-02-18T04:34:52.490Z,36
2019-02-18T04:35:42.827Z,36
2019-02-18T04:36:33.157Z,36
2019-02-18T04:37:23.249Z,36
2019-02-18T04:38:12.747Z,36
2019-02-18T04:39:02.769Z,36
2019-02-18T04:39:53.117Z,36
2019-02-18T04:40:42.941Z,36
2019-02-18T04:41:33.270Z,35.9
2019-02-18T04:42:23.542Z,36
2019-02-18T04:43:13.853Z,35.9
2019-02-18T04:44:03.736Z,35.9
2019-02-18T04:44:53.219Z,35.9
2019-02-18T04:45:43.009Z,35.9
2019-02-18T04:46:34.171Z,35.9
2019-02-18T04:47:23.993Z,35.9
2019-02-18T04:48:14.301Z,35.9
2019-02-18T04:49:04.089Z,35.9
2019-02-18T04:49:54.336Z,35.9
2019-02-18T04:50:44.173Z,35.9
2019-02-18T04:51:33.678Z,35.9
2019-02-18T04:52:23.723Z,35.9
2019-02-18T04:53:13.770Z,35.9
2019-02-18T04:54:04.113Z,35.9
2019-02-18T04:54:53.865Z,35.9
2019-02-18T04:55:43.903Z,35.9
2019-02-18T04:56:34.582Z,35.9
2019-02-18T04:57:24.695Z,35.9
2019-02-18T04:58:14.725Z,35.9
2019-02-18T04:59:04.190Z,35.9
2019-02-18T04:59:54.806Z,35.9
2019-02-18T05:00:44.068Z,35.9
2019-02-18T05:01:35.198Z,35.9
2019-02-18T05:02:24.983Z,35.8
2019-02-18T05:03:14.747Z,35.8
2019-02-18T05:04:04.689Z,35.8
2019-02-18T05:04:55.189Z,35.8
2019-02-18T05:05:45.195Z,35.8
2019-02-18T05:06:34.785Z,35.8
2019-02-18T05:07:25.595Z,35.8
2019-02-18T05:08:15.647Z,35.8
2019-02-18T05:09:11.472Z,35.8
2019-02-18T05:09:55.223Z,35.8
2019-02-18T05:10:45.827Z,35.8
2019-02-18T05:11:35.325Z,35.8
2019-02-18T05:12:25.387Z,35.8
2019-02-18T05:13:15.152Z,35.8
2019-02-18T05:14:05.541Z,35.8
2019-02-18T05:14:55.537Z,35.8
2019-02-18T05:15:46.261Z,35.8
2019-02-18T05:16:35.736Z,35.8
2019-02-18T05:17:25.448Z,35.8
2019-02-18T05:18:15.470Z,35.8
2019-02-18T05:19:05.582Z,35.8
2019-02-18T05:19:55.627Z,35.8
2019-02-18T05:20:45.993Z,35.8
2019-02-18T05:21:35.782Z,35.7
2019-02-18T05:22:25.798Z,35.7
2019-02-18T05:23:16.418Z,35.7
2019-02-18T05:24:06.005Z,35.7
2019-02-18T05:24:56.248Z,35.7
2019-02-18T05:25:46.100Z,35.7
2019-02-18T05:26:36.392Z,35.7
2019-02-18T05:27:38.240Z,35.7
2019-02-18T05:28:16.803Z,35.7
2019-02-18T05:29:06.874Z,35.6
2019-02-18T05:29:56.859Z,35.6
2019-02-18T05:30:46.453Z,35.6
2019-02-18T05:31:37.016Z,35.6
2019-02-18T05:32:26.592Z,35.6
2019-02-18T05:33:17.352Z,35.6
2019-02-18T05:34:06.998Z,35.6
2019-02-18T05:34:56.357Z,35.6
2019-02-18T05:35:46.702Z,35.6
2019-02-18T05:36:37.341Z,35.6
2019-02-18T05:37:26.459Z,35.6
2019-02-18T05:38:16.840Z,35.6
2019-02-18T05:39:19.150Z,35.6
2019-02-18T05:39:59.137Z,35.6
2019-02-18T05:40:46.969Z,35.6
2019-02-18T05:41:36.720Z,35.6
2019-02-18T05:42:27.404Z,35.6
2019-02-18T05:43:17.544Z,35.6
2019-02-18T05:44:06.810Z,35.6
2019-02-18T05:44:57.682Z,35.6
2019-02-18T05:45:47.433Z,35.6
2019-02-18T05:46:37.213Z,35.6
2019-02-18T05:47:27.071Z,35.6
2019-02-18T05:48:17.969Z,35.6
2019-02-18T05:49:07.160Z,35.6
2019-02-18T05:49:58.339Z,35.5
2019-02-18T05:50:47.998Z,35.5
2019-02-18T05:51:38.369Z,35.5
2019-02-18T05:52:27.683Z,35.5
2019-02-18T05:53:17.528Z,35.5
2019-02-18T05:54:08.289Z,35.5
2019-02-18T05:54:58.316Z,35.5
2019-02-18T05:55:48.151Z,35.4
2019-02-18T05:56:38.452Z,35.5
2019-02-18T05:57:29.267Z,35.5
2019-02-18T05:58:18.865Z,35.5
2019-02-18T05:59:08.657Z,35.4
2019-02-18T05:59:58.382Z,35.5
2019-02-18T06:00:48.233Z,35.4
2019-02-18T06:01:38.498Z,35.4
2019-02-18T06:02:28.975Z,35.4
2019-02-18T06:03:17.808Z,35.4
2019-02-18T06:04:09.248Z,35.4
2019-02-18T06:06:06.263Z,35.4
2019-02-18T06:06:57.209Z,35.4
2019-02-18T06:07:47.328Z,35.4
2019-02-18T06:08:36.210Z,35.4
2019-02-18T06:09:35.925Z,35.4
2019-02-18T06:10:21.265Z,35.4
2019-02-18T06:11:06.540Z,35.4
2019-02-18T06:11:56.750Z,35.4
2019-02-18T06:12:46.357Z,35.4
2019-02-18T06:13:36.589Z,35.4
2019-02-18T06:14:27.184Z,35.4
2019-02-18T06:15:16.702Z,35.4
2019-02-18T06:16:07.262Z,35.4
2019-02-18T06:16:58.122Z,35.4
2019-02-18T06:17:48.124Z,35.3
2019-02-18T06:18:38.229Z,35.4
2019-02-18T06:19:27.532Z,35.3
2019-02-18T06:20:17.329Z,35.3
2019-02-18T06:21:07.596Z,35.3
2019-02-18T06:21:57.374Z,35.3
2019-02-18T06:22:48.285Z,35.3
2019-02-18T06:23:52.987Z,35.3
2019-02-18T06:24:27.985Z,35.3
2019-02-18T06:25:32.908Z,35.3
2019-02-18T06:26:08.688Z,35.3
2019-02-18T06:26:58.504Z,35.3
2019-02-18T06:27:47.830Z,35.3
2019-02-18T06:28:38.441Z,35.3
2019-02-18T06:29:28.766Z,35.3
2019-02-18T06:30:17.973Z,35.3
2019-02-18T06:31:08.892Z,35.3
2019-02-18T06:31:57.806Z,35.3
2019-02-18T06:32:48.734Z,35.3
2019-02-18T06:33:38.546Z,35.3
2019-02-18T06:34:29.143Z,35.3
2019-02-18T06:35:18.673Z,35.3
2019-02-18T06:36:08.646Z,35.3
2019-02-18T06:36:58.558Z,35.3
2019-02-18T06:37:48.660Z,35.3
2019-02-18T06:38:38.359Z,35.3
2019-02-18T06:39:40.110Z,35.3
2019-02-18T06:40:18.937Z,35.3
2019-02-18T06:41:08.381Z,35.3
2019-02-18T06:41:59.005Z,35.3
2019-02-18T06:42:48.583Z,35.3
2019-02-18T06:43:39.687Z,35.2
2019-02-18T06:44:28.655Z,35.2
2019-02-18T06:45:19.263Z,35.2
2019-02-18T06:46:09.302Z,35.2
2019-02-18T06:47:00.135Z,35.2
2019-02-18T06:47:49.170Z,35.2
2019-02-18T06:48:40.012Z,35.2
2019-02-18T06:49:29.593Z,35.2
2019-02-18T06:50:19.397Z,35.2
2019-02-18T06:51:10.110Z,35.2
2019-02-18T06:52:49.447Z,35.2
2019-02-18T06:53:40.112Z,35.2
2019-02-18T06:54:45.115Z,35.2
2019-02-18T06:55:19.954Z,35.1
2019-02-18T06:56:10.017Z,35.1
2019-02-18T06:57:00.410Z,35.1
2019-02-18T06:57:50.394Z,35.1
2019-02-18T06:58:39.887Z,35.1
2019-02-18T06:59:30.212Z,35.1
2019-02-18T07:00:20.709Z,35.1
2019-02-18T07:01:10.370Z,35.1
2019-02-18T07:01:59.853Z,35.1
2019-02-18T07:02:51.026Z,35.1
2019-02-18T07:03:39.794Z,35.1
2019-02-18T07:06:06.513Z,19.5
2019-02-18T07:06:57.404Z,33.7
2019-02-18T07:07:46.398Z,40.6
2019-02-18T07:08:36.264Z,42.5
2019-02-18T07:09:26.436Z,42.9
2019-02-18T07:10:15.439Z,42.8
2019-02-18T07:11:07.479Z,42.4
2019-02-18T07:11:56.959Z,42.1
2019-02-18T07:12:47.270Z,41.8
2019-02-18T07:13:37.721Z,41.4
2019-02-18T07:14:27.149Z,41.1
2019-02-18T07:15:16.879Z,40.8
2019-02-18T07:16:07.534Z,40.6
2019-02-18T07:16:57.781Z,40.4
2019-02-18T07:17:47.321Z,40.3
2019-02-18T07:18:37.630Z,40.1
2019-02-18T07:19:59.268Z,39.9
2019-02-18T07:20:17.535Z,39.7
2019-02-18T07:21:06.725Z,39.6
2019-02-18T07:21:57.901Z,39.5
2019-02-18T07:22:48.488Z,39.4
2019-02-18T07:23:37.728Z,39.3
2019-02-18T07:24:27.898Z,39.1
2019-02-18T07:25:18.398Z,37.7
2019-02-18T07:26:07.896Z,37.4
2019-02-18T07:26:58.655Z,45.3
2019-02-18T07:27:48.561Z,49.4
2019-02-18T07:28:37.555Z,49.4
2019-02-18T07:29:27.863Z,46.8
2019-02-18T07:30:17.907Z,44.9
2019-02-18T07:31:08.557Z,44.6
2019-02-18T07:31:58.643Z,45.3
2019-02-18T07:32:48.117Z,46.2
2019-02-18T07:33:37.879Z,47.3
2019-02-18T07:34:28.937Z,48.3
2019-02-18T07:35:19.157Z,48.9
2019-02-18T07:36:08.877Z,49.2
2019-02-18T07:36:59.537Z,49.2
2019-02-18T07:38:02.842Z,49.2
2019-02-18T07:38:38.199Z,49.3
2019-02-18T07:39:28.324Z,49.5
2019-02-18T07:40:19.084Z,49.7
2019-02-18T07:41:09.466Z,50
2019-02-18T07:41:58.974Z,50.3
2019-02-18T07:42:49.345Z,50.6
2019-02-18T07:43:39.374Z,50.8
2019-02-18T07:44:29.175Z,50.9
2019-02-18T07:45:19.510Z,51.1
2019-02-18T07:46:09.512Z,51.3
2019-02-18T07:46:59.896Z,51.4
2019-02-18T07:47:49.118Z,51.5
2019-02-18T07:48:42.142Z,51.7
2019-02-18T07:49:29.543Z,51.8
2019-02-18T07:50:26.898Z,51.9
2019-02-18T07:51:13.373Z,52.1
2019-02-18T07:51:59.678Z,52.1
2019-02-18T07:52:49.191Z,52.3
2019-02-18T07:53:39.616Z,52.4
2019-02-18T07:54:30.161Z,52.6
2019-02-18T07:55:20.460Z,52.8
2019-02-18T07:56:10.278Z,52.9
2019-02-18T07:56:59.736Z,53
2019-02-18T07:57:50.094Z,53.1
2019-02-18T07:58:39.888Z,53.3
2019-02-18T07:59:29.432Z,53.4
2019-02-18T08:00:20.533Z,53.6
2019-02-18T08:01:10.380Z,53.8
2019-02-18T08:02:00.660Z,53.9
2019-02-18T08:02:50.769Z,54
2019-02-18T08:03:40.238Z,54.1
2019-02-18T08:04:30.258Z,54.3
2019-02-18T08:05:20.633Z,54.4
2019-02-18T08:06:10.105Z,54.5
2019-02-18T08:07:00.182Z,54.6
2019-02-18T08:07:51.052Z,54.8
2019-02-18T08:08:40.415Z,54.9
2019-02-18T08:09:30.356Z,55.1
2019-02-18T08:10:21.220Z,55.3
2019-02-18T08:11:10.316Z,55.4
2019-02-18T08:12:00.765Z,55.6
2019-02-18T08:12:49.999Z,55.7
2019-02-18T08:13:41.620Z,55.8
2019-02-18T08:14:31.572Z,56
2019-02-18T08:15:21.323Z,56.1
2019-02-18T08:16:09.975Z,56.3
2019-02-18T08:17:01.240Z,56.4
2019-02-18T08:17:51.259Z,56.6
2019-02-18T08:18:41.354Z,56.6
2019-02-18T08:19:31.869Z,56.6
2019-02-18T08:20:21.157Z,56.6
2019-02-18T08:21:10.645Z,56.6
2019-02-18T08:22:01.017Z,56.7
2019-02-18T08:22:51.615Z,56.8
2019-02-18T08:23:41.875Z,57
2019-02-18T08:24:31.469Z,57.1
2019-02-18T08:25:21.559Z,57.3
2019-02-18T08:26:11.625Z,57.4
2019-02-18T08:27:02.479Z,57.6
2019-02-18T08:28:42.856Z,57.9
2019-02-18T08:29:32.551Z,58.1
2019-02-18T08:30:21.839Z,58.2
2019-02-18T08:31:12.384Z,58.4
2019-02-18T08:32:02.716Z,58.5
2019-02-18T08:32:52.214Z,58.7
2019-02-18T08:33:42.593Z,58.8
2019-02-18T08:34:32.608Z,59
2019-02-18T08:35:23.018Z,59.1
2019-02-18T08:36:12.197Z,59.3
2019-02-18T08:37:02.798Z,59.3
2019-02-18T08:37:53.255Z,59.4
2019-02-18T08:38:43.096Z,59.6
2019-02-18T08:39:33.271Z,59.8
2019-02-18T08:40:28.731Z,59.9
2019-02-18T08:41:12.343Z,60.1
2019-02-18T08:42:02.668Z,60.2
2019-02-18T08:42:53.005Z,60.3
2019-02-18T08:43:42.458Z,60.5
2019-02-18T08:44:33.309Z,60.6
2019-02-18T08:45:23.732Z,60.7
2019-02-18T08:46:13.443Z,60.8
2019-02-18T08:47:02.954Z,60.9
2019-02-18T08:47:52.730Z,61.1
2019-02-18T08:48:44.175Z,61.2
2019-02-18T08:49:34.039Z,61.3
2019-02-18T08:50:23.725Z,61.5
2019-02-18T08:51:13.870Z,61.6
2019-02-18T08:52:03.018Z,61.7
2019-02-18T08:52:53.345Z,61.9
2019-02-18T08:53:44.017Z,62
2019-02-18T08:54:33.056Z,62.1
2019-02-18T08:55:23.881Z,62.3
2019-02-18T08:56:14.677Z,62.4
2019-02-18T08:57:03.077Z,62.5
2019-02-18T08:57:54.220Z,62.6
2019-02-18T08:58:44.100Z,62.7
2019-02-18T08:59:34.344Z,62.8
2019-02-18T09:00:24.409Z,62.9
2019-02-18T09:01:14.744Z,63.1
2019-02-18T09:02:04.858Z,63.2
2019-02-18T09:02:55.164Z,63.3
2019-02-18T09:03:44.409Z,63.4
2019-02-18T09:04:34.994Z,63.4
2019-02-18T09:05:25.822Z,63.6
2019-02-18T09:06:14.508Z,63.7
2019-02-18T09:07:05.534Z,63.8
2019-02-18T09:07:54.174Z,63.9
2019-02-18T09:08:45.084Z,63.9
2019-02-18T09:09:35.029Z,64.1
2019-02-18T09:10:37.125Z,64.1
2019-02-18T09:11:15.756Z,64.3
2019-02-18T09:12:05.478Z,64.4
2019-02-18T09:12:55.299Z,64.4
2019-02-18T09:13:45.725Z,64.6
2019-02-18T09:14:35.388Z,64.7
2019-02-18T09:15:25.733Z,64.8
2019-02-18T09:16:15.771Z,64.9
2019-02-18T09:17:04.864Z,64.9
2019-02-18T09:17:55.982Z,65
2019-02-18T09:18:45.385Z,65.1
2019-02-18T09:19:35.528Z,65.2
2019-02-18T09:20:28.946Z,65.3
2019-02-18T09:21:15.055Z,65.4
2019-02-18T09:22:06.185Z,65.5
2019-02-18T09:22:55.495Z,65.6
2019-02-18T09:23:46.623Z,65.7
2019-02-18T09:24:36.342Z,65.8
2019-02-18T09:25:26.455Z,65.9
2019-02-18T09:26:15.429Z,65.9
2019-02-18T09:27:05.813Z,66.1
2019-02-18T09:27:56.698Z,66.1
2019-02-18T09:28:46.140Z,66.2
2019-02-18T09:29:35.870Z,66.3
2019-02-18T09:30:26.287Z,66.4
2019-02-18T09:31:16.058Z,66.4
2019-02-18T09:32:05.835Z,66.6
2019-02-18T09:32:55.925Z,66.6
2019-02-18T09:33:45.410Z,66.7
2019-02-18T09:34:36.349Z,66.8
2019-02-18T09:35:26.685Z,66.9
2019-02-18T09:36:16.170Z,66.9
2019-02-18T09:37:05.945Z,67.1
2019-02-18T09:37:56.692Z,67.2
2019-02-18T09:38:46.940Z,67.3
2019-02-18T09:39:37.116Z,67.4
2019-02-18T09:40:25.951Z,67.4
2019-02-18T09:41:16.217Z,67.5
2019-02-18T09:42:07.449Z,67.6
2019-02-18T09:42:56.149Z,67.6
2019-02-18T09:43:47.007Z,67.7
2019-02-18T09:44:36.417Z,67.8
2019-02-18T09:45:27.128Z,67.8
2019-02-18T09:46:17.372Z,67.9
2019-02-18T09:47:07.407Z,68
2019-02-18T09:47:59.173Z,68.1
2019-02-18T09:48:47.279Z,68.2
2019-02-18T09:49:37.901Z,68.3
2019-02-18T09:50:27.866Z,68.3
2019-02-18T09:51:18.044Z,68.4
2019-02-18T09:52:07.576Z,68.4
2019-02-18T09:52:57.311Z,68.5
2019-02-18T09:53:48.431Z,68.6
2019-02-18T09:54:37.909Z,68.7
2019-02-18T09:55:27.648Z,68.8
2019-02-18T09:56:18.111Z,68.8
2019-02-18T09:57:08.603Z,68.9
2019-02-18T09:57:57.891Z,69
2019-02-18T09:58:51.236Z,69
2019-02-18T09:59:39.061Z,69.1
2019-02-18T10:00:28.348Z,69.1
2019-02-18T10:01:18.678Z,69.2
2019-02-18T10:02:08.950Z,69.3
2019-02-18T10:02:58.448Z,69.3
2019-02-18T10:03:48.004Z,69.3
2019-02-18T10:04:39.202Z,69.4
2019-02-18T10:07:06.943Z,69.6
2019-02-18T10:07:56.157Z,69.7
2019-02-18T10:08:46.499Z,69.8
2019-02-18T10:09:35.987Z,69.8
2019-02-18T10:10:27.224Z,69.9
2019-02-18T10:11:16.648Z,69.9
2019-02-18T10:12:06.477Z,70
2019-02-18T10:12:59.639Z,70.1
2019-02-18T10:13:46.550Z,70.1
2019-02-18T10:14:36.870Z,70.2
2019-02-18T10:15:27.311Z,70.3
2019-02-18T10:16:17.053Z,70.4
2019-02-18T10:17:07.318Z,70.4
2019-02-18T10:17:57.427Z,70.5
2019-02-18T10:18:46.866Z,70.6
2019-02-18T10:19:36.742Z,70.7
2019-02-18T10:20:27.836Z,70.8
2019-02-18T10:21:17.357Z,70.8
2019-02-18T10:22:07.407Z,70.9
2019-02-18T10:22:57.176Z,71
2019-02-18T10:23:48.067Z,71.1
2019-02-18T10:24:37.569Z,71.2
2019-02-18T10:25:28.224Z,71.3
2019-02-18T10:26:17.719Z,71.3
2019-02-18T10:27:07.576Z,71.3
2019-02-18T10:27:58.326Z,71.3
2019-02-18T10:28:48.124Z,71.4
2019-02-18T10:29:38.161Z,71.4
2019-02-18T10:30:28.006Z,71.4
2019-02-18T10:31:18.049Z,71.5
2019-02-18T10:32:08.369Z,71.6
2019-02-18T10:32:58.152Z,71.6
2019-02-18T10:33:47.114Z,71.8
2019-02-18T10:34:37.210Z,71.8
2019-02-18T10:35:30.541Z,71.8
2019-02-18T10:36:18.081Z,71.9
2019-02-18T10:37:08.976Z,71.9
2019-02-18T10:38:01.676Z,71.9
2019-02-18T10:38:48.863Z,72
2019-02-18T10:39:38.386Z,72.1
2019-02-18T10:40:27.829Z,72.2
2019-02-18T10:41:21.216Z,72.3
2019-02-18T10:42:07.668Z,72.3
2019-02-18T10:42:59.193Z,72.3
2019-02-18T10:43:49.183Z,72.4
2019-02-18T10:44:38.763Z,72.4
2019-02-18T10:45:29.699Z,72.5
2019-02-18T10:46:19.120Z,72.6
2019-02-18T10:47:11.148Z,72.6
2019-02-18T10:47:59.823Z,72.7
2019-02-18T10:48:49.291Z,72.8
2019-02-18T10:49:39.340Z,72.8
2019-02-18T10:50:30.455Z,72.8
2019-02-18T10:51:19.284Z,72.8
2019-02-18T10:52:09.695Z,72.9
2019-02-18T10:52:59.823Z,72.9
2019-02-18T10:53:50.048Z,73
2019-02-18T10:54:40.100Z,73
2019-02-18T10:55:29.993Z,73.1
2019-02-18T10:56:22.187Z,73.2
2019-02-18T10:57:10.138Z,73.2
2019-02-18T10:57:59.939Z,73.3
2019-02-18T10:58:49.440Z,73.3
2019-02-18T10:59:40.022Z,73.3
2019-02-18T11:00:29.826Z,73.3
2019-02-18T11:01:19.614Z,73.3
2019-02-18T11:02:10.634Z,73.4
2019-02-18T11:02:59.702Z,73.4
2019-02-18T11:03:50.380Z,73.4
2019-02-18T11:04:40.134Z,73.6
2019-02-18T11:05:32.897Z,73.6
2019-02-18T11:06:20.824Z,73.6
2019-02-18T11:07:09.729Z,73.6
2019-02-18T11:08:00.697Z,73.6
2019-02-18T11:08:50.633Z,73.6
2019-02-18T11:09:40.966Z,73.6
2019-02-18T11:10:30.734Z,73.6
2019-02-18T11:11:23.069Z,73.7
2019-02-18T11:12:10.637Z,73.7
2019-02-18T11:13:03.278Z,73.7
2019-02-18T11:13:51.201Z,73.7
2019-02-18T11:14:40.564Z,73.8
2019-02-18T11:15:30.896Z,73.8
2019-02-18T11:16:21.285Z,73.8
2019-02-18T11:17:11.589Z,73.9